Vremea acum in Siret - Romania

Vrei sa afli care e starea vremii acum in Suceava - Romania? Dorim sa iti furnizam starea vremii pentru Suceava - Romania. Starea vremii Suceava - Romania pentru astazi.

Vremea acum in Siret

Temperatura: 17.2 °C

Este: Senin
Se simte ca: 17.2 °C
Innorat: 0 %
Precipitatii: 0 %
Presiune atmosferica: 1013 hPa
Umiditate: 52%
Vizibilitate: 10 km
Vantul bate din SSE cu 9.4 km/h

Evolutia vremii in Siret pe ore

Ora: 12:00
Senin
Temperatura: 22.5°C
Sansa de precipitatii: 0%
Ora Descriere Temp Se simte Precipitatii Umiditate Vant
00:00Senin13.9°13.7°0%65%SSW 7.6 KM/H
01:00Senin13.3°13°0%66%SSW 7.2 KM/H
02:00Senin12.9°12.6°0%68%SW 6.8 KM/H
03:00Senin12.5°12.2°0%69%SSW 6.5 KM/H
04:00Senin12.2°11.9°0%70%SW 6.5 KM/H
05:00Senin11.7°11.4°0%71%SW 6.1 KM/H
06:00Senin11.5°11.2°0%71%SW 5.8 KM/H
07:0012.9°12.9°0%71%SSW 5.4 KM/H
08:00Senin15.4°15.4°0%64%S 6.1 KM/H
09:00Senin17.2°17.6°0%52%SSE 9.4 KM/H
10:00Senin19.6°19.6°0%55%SSE 13.7 KM/H
11:00Senin21.4°21.4°0%50%SSE 18.7 KM/H
12:00Senin22.5°24.4°0%45%SSE 22.7 KM/H
13:00Senin23°24.5°0%43%SSE 23.8 KM/H
14:00Senin23.2°24.6°0%42%SE 26.3 KM/H
15:00Senin23.4°24.6°0%41%SE 27.7 KM/H
16:00Senin23.3°24.7°0%44%SE 27.4 KM/H
17:00Senin22.8°24.6°0%49%SSE 24.8 KM/H
18:00Thundery outbreaks in nearby21.6°21.6°0%53%SSE 20.9 KM/H
19:00Senin19.8°19.8°0%58%SSE 22.7 KM/H
20:00Senin17.9°17.9°0%61%SSE 23 KM/H
21:00Senin16.8°16.8°0%62%SSE 20.9 KM/H
22:00Senin15.8°15.8°0%67%SSE 18.7 KM/H
23:00Senin14.2°13.1°0%73%S 15.1 KM/H




tutorials